sensor_id;sensor_type;location;lat;lon;timestamp;P1;durP1;ratioP1;P2;durP2;ratioP2
79668;SDS011;69136;52.614;6.976;2024-01-10T00:02:38;7.82;;;3.35;;
79668;SDS011;69136;52.614;6.976;2024-01-10T00:05:22;5.57;;;3.15;;
79668;SDS011;69136;52.614;6.976;2024-01-10T00:08:06;6.95;;;3.28;;
79668;SDS011;69136;52.614;6.976;2024-01-10T00:10:51;7.68;;;3.17;;
79668;SDS011;69136;52.614;6.976;2024-01-10T00:13:37;4.65;;;2.53;;
79668;SDS011;69136;52.614;6.976;2024-01-10T00:16:22;5.95;;;3.47;;
79668;SDS011;69136;52.614;6.976;2024-01-10T00:19:05;5.53;;;3.13;;
79668;SDS011;69136;52.614;6.976;2024-01-10T00:24:34;5.63;;;3.38;;
79668;SDS011;69136;52.614;6.976;2024-01-10T00:27:18;6.50;;;3.15;;
79668;SDS011;69136;52.614;6.976;2024-01-10T00:30:01;4.55;;;2.95;;
79668;SDS011;69136;52.614;6.976;2024-01-10T00:32:46;6.07;;;3.25;;
79668;SDS011;69136;52.614;6.976;2024-01-10T00:35:30;4.30;;;2.75;;
79668;SDS011;69136;52.614;6.976;2024-01-10T00:40:58;5.10;;;2.50;;
79668;SDS011;69136;52.614;6.976;2024-01-10T00:43:42;5.50;;;3.15;;
79668;SDS011;69136;52.614;6.976;2024-01-10T00:46:26;7.28;;;3.35;;
79668;SDS011;69136;52.614;6.976;2024-01-10T00:49:10;5.43;;;2.90;;
79668;SDS011;69136;52.614;6.976;2024-01-10T00:51:54;7.25;;;3.40;;
79668;SDS011;69136;52.614;6.976;2024-01-10T00:57:23;4.63;;;3.00;;
79668;SDS011;69136;52.614;6.976;2024-01-10T01:00:07;5.05;;;2.83;;
79668;SDS011;69136;52.614;6.976;2024-01-10T01:02:52;8.63;;;3.42;;
79668;SDS011;69136;52.614;6.976;2024-01-10T01:08:21;4.85;;;2.65;;
79668;SDS011;69136;52.614;6.976;2024-01-10T01:11:05;6.43;;;3.20;;
79668;SDS011;69136;52.614;6.976;2024-01-10T01:13:49;5.95;;;3.13;;
79668;SDS011;69136;52.614;6.976;2024-01-10T01:16:33;7.13;;;3.13;;
79668;SDS011;69136;52.614;6.976;2024-01-10T01:19:17;6.20;;;2.60;;
79668;SDS011;69136;52.614;6.976;2024-01-10T01:22:01;5.68;;;2.72;;
79668;SDS011;69136;52.614;6.976;2024-01-10T01:27:30;5.05;;;2.67;;
79668;SDS011;69136;52.614;6.976;2024-01-10T01:30:14;5.53;;;2.88;;
79668;SDS011;69136;52.614;6.976;2024-01-10T01:32:58;5.10;;;2.80;;
79668;SDS011;69136;52.614;6.976;2024-01-10T01:35:43;5.60;;;3.03;;
79668;SDS011;69136;52.614;6.976;2024-01-10T01:38:27;5.57;;;2.78;;
79668;SDS011;69136;52.614;6.976;2024-01-10T01:41:11;5.40;;;2.88;;
79668;SDS011;69136;52.614;6.976;2024-01-10T01:43:56;6.43;;;2.88;;
79668;SDS011;69136;52.614;6.976;2024-01-10T01:46:40;6.20;;;3.03;;
79668;SDS011;69136;52.614;6.976;2024-01-10T01:49:25;8.07;;;3.58;;
79668;SDS011;69136;52.614;6.976;2024-01-10T01:52:10;6.53;;;2.70;;
79668;SDS011;69136;52.614;6.976;2024-01-10T01:54:54;6.95;;;3.50;;
79668;SDS011;69136;52.614;6.976;2024-01-10T02:00:23;6.07;;;3.33;;
79668;SDS011;69136;52.614;6.976;2024-01-10T02:03:08;6.03;;;3.30;;
79668;SDS011;69136;52.614;6.976;2024-01-10T02:05:53;5.50;;;3.22;;
79668;SDS011;69136;52.614;6.976;2024-01-10T02:08:38;6.38;;;3.03;;
79668;SDS011;69136;52.614;6.976;2024-01-10T02:11:22;7.00;;;3.53;;
79668;SDS011;69136;52.614;6.976;2024-01-10T02:14:06;7.22;;;3.00;;
79668;SDS011;69136;52.614;6.976;2024-01-10T02:16:50;7.93;;;3.03;;
79668;SDS011;69136;52.614;6.976;2024-01-10T02:19:34;5.28;;;3.08;;
79668;SDS011;69136;52.614;6.976;2024-01-10T02:25:12;7.32;;;3.78;;
79668;SDS011;69136;52.614;6.976;2024-01-10T02:27:56;3.58;;;2.38;;
79668;SDS011;69136;52.614;6.976;2024-01-10T02:30:40;7.15;;;3.88;;
79668;SDS011;69136;52.614;6.976;2024-01-10T02:33:24;6.97;;;3.40;;
79668;SDS011;69136;52.614;6.976;2024-01-10T02:36:08;6.10;;;3.33;;
79668;SDS011;69136;52.614;6.976;2024-01-10T02:38:52;4.90;;;3.38;;
79668;SDS011;69136;52.614;6.976;2024-01-10T02:41:36;6.45;;;3.20;;
79668;SDS011;69136;52.614;6.976;2024-01-10T02:44:20;8.43;;;3.92;;
79668;SDS011;69136;52.614;6.976;2024-01-10T02:47:07;4.28;;;2.58;;
79668;SDS011;69136;52.614;6.976;2024-01-10T02:49:51;5.38;;;3.05;;
79668;SDS011;69136;52.614;6.976;2024-01-10T02:52:35;7.40;;;3.38;;
79668;SDS011;69136;52.614;6.976;2024-01-10T02:55:19;4.95;;;2.67;;
79668;SDS011;69136;52.614;6.976;2024-01-10T03:00:47;7.45;;;3.00;;
79668;SDS011;69136;52.614;6.976;2024-01-10T03:03:31;9.43;;;3.70;;
79668;SDS011;69136;52.614;6.976;2024-01-10T03:06:15;4.70;;;2.80;;
79668;SDS011;69136;52.614;6.976;2024-01-10T03:08:59;8.68;;;3.75;;
79668;SDS011;69136;52.614;6.976;2024-01-10T03:11:43;6.25;;;3.08;;
79668;SDS011;69136;52.614;6.976;2024-01-10T03:14:27;5.57;;;2.78;;
79668;SDS011;69136;52.614;6.976;2024-01-10T03:17:11;6.55;;;3.47;;
79668;SDS011;69136;52.614;6.976;2024-01-10T03:19:54;5.97;;;2.40;;
79668;SDS011;69136;52.614;6.976;2024-01-10T03:22:38;6.63;;;3.38;;
79668;SDS011;69136;52.614;6.976;2024-01-10T03:25:22;6.57;;;2.97;;
79668;SDS011;69136;52.614;6.976;2024-01-10T03:28:06;6.15;;;3.20;;
79668;SDS011;69136;52.614;6.976;2024-01-10T03:30:51;7.05;;;3.55;;
79668;SDS011;69136;52.614;6.976;2024-01-10T03:33:35;7.57;;;3.33;;
79668;SDS011;69136;52.614;6.976;2024-01-10T03:39:04;5.22;;;3.15;;
79668;SDS011;69136;52.614;6.976;2024-01-10T03:41:48;5.95;;;2.75;;
79668;SDS011;69136;52.614;6.976;2024-01-10T03:44:31;10.07;;;3.63;;
79668;SDS011;69136;52.614;6.976;2024-01-10T03:47:15;5.88;;;2.80;;
79668;SDS011;69136;52.614;6.976;2024-01-10T03:49:59;7.60;;;3.53;;
79668;SDS011;69136;52.614;6.976;2024-01-10T03:52:43;6.97;;;3.35;;
79668;SDS011;69136;52.614;6.976;2024-01-10T03:55:27;7.85;;;3.60;;
79668;SDS011;69136;52.614;6.976;2024-01-10T03:58:11;6.88;;;3.25;;
79668;SDS011;69136;52.614;6.976;2024-01-10T04:00:55;9.95;;;3.83;;
79668;SDS011;69136;52.614;6.976;2024-01-10T04:03:39;6.35;;;3.40;;
79668;SDS011;69136;52.614;6.976;2024-01-10T04:06:26;7.43;;;3.85;;
79668;SDS011;69136;52.614;6.976;2024-01-10T04:09:11;5.65;;;2.95;;
79668;SDS011;69136;52.614;6.976;2024-01-10T04:11:56;6.78;;;3.33;;
79668;SDS011;69136;52.614;6.976;2024-01-10T04:14:40;6.78;;;2.83;;
79668;SDS011;69136;52.614;6.976;2024-01-10T04:17:24;8.82;;;3.38;;
79668;SDS011;69136;52.614;6.976;2024-01-10T04:20:08;7.75;;;3.05;;
79668;SDS011;69136;52.614;6.976;2024-01-10T04:22:52;6.93;;;3.35;;
79668;SDS011;69136;52.614;6.976;2024-01-10T04:25:37;7.93;;;3.45;;
79668;SDS011;69136;52.614;6.976;2024-01-10T04:28:21;6.78;;;3.25;;
79668;SDS011;69136;52.614;6.976;2024-01-10T04:31:05;5.78;;;3.67;;
79668;SDS011;69136;52.614;6.976;2024-01-10T04:33:49;5.97;;;3.42;;
79668;SDS011;69136;52.614;6.976;2024-01-10T04:36:33;6.53;;;3.05;;
79668;SDS011;69136;52.614;6.976;2024-01-10T04:39:17;7.32;;;3.88;;
79668;SDS011;69136;52.614;6.976;2024-01-10T04:42:02;9.00;;;3.53;;
79668;SDS011;69136;52.614;6.976;2024-01-10T04:44:46;11.45;;;3.78;;
79668;SDS011;69136;52.614;6.976;2024-01-10T04:47:30;6.05;;;2.92;;
79668;SDS011;69136;52.614;6.976;2024-01-10T04:50:14;8.07;;;3.72;;
79668;SDS011;69136;52.614;6.976;2024-01-10T04:55:42;5.82;;;3.17;;
79668;SDS011;69136;52.614;6.976;2024-01-10T04:58:26;6.30;;;3.35;;
79668;SDS011;69136;52.614;6.976;2024-01-10T05:01:10;7.20;;;3.97;;
79668;SDS011;69136;52.614;6.976;2024-01-10T05:03:54;8.30;;;3.80;;
79668;SDS011;69136;52.614;6.976;2024-01-10T05:06:38;8.90;;;3.67;;
79668;SDS011;69136;52.614;6.976;2024-01-10T05:09:22;7.22;;;4.07;;
79668;SDS011;69136;52.614;6.976;2024-01-10T05:12:06;10.18;;;4.03;;
79668;SDS011;69136;52.614;6.976;2024-01-10T05:14:50;6.90;;;3.95;;
79668;SDS011;69136;52.614;6.976;2024-01-10T05:17:34;8.73;;;4.13;;
79668;SDS011;69136;52.614;6.976;2024-01-10T05:20:18;5.28;;;3.35;;
79668;SDS011;69136;52.614;6.976;2024-01-10T05:23:02;7.78;;;3.92;;
79668;SDS011;69136;52.614;6.976;2024-01-10T05:25:46;7.85;;;3.85;;
79668;SDS011;69136;52.614;6.976;2024-01-10T05:31:15;7.90;;;3.35;;
79668;SDS011;69136;52.614;6.976;2024-01-10T05:33:59;7.35;;;3.47;;
79668;SDS011;69136;52.614;6.976;2024-01-10T05:36:43;8.00;;;3.88;;
79668;SDS011;69136;52.614;6.976;2024-01-10T05:39:26;9.45;;;4.13;;
79668;SDS011;69136;52.614;6.976;2024-01-10T05:42:10;6.22;;;3.50;;
79668;SDS011;69136;52.614;6.976;2024-01-10T05:44:55;7.30;;;3.47;;
79668;SDS011;69136;52.614;6.976;2024-01-10T05:47:39;4.82;;;3.25;;
79668;SDS011;69136;52.614;6.976;2024-01-10T05:50:23;8.20;;;4.30;;
79668;SDS011;69136;52.614;6.976;2024-01-10T05:53:06;8.95;;;4.03;;
79668;SDS011;69136;52.614;6.976;2024-01-10T05:55:52;6.82;;;3.50;;
79668;SDS011;69136;52.614;6.976;2024-01-10T05:58:36;6.55;;;3.80;;
79668;SDS011;69136;52.614;6.976;2024-01-10T06:01:20;6.60;;;3.75;;
79668;SDS011;69136;52.614;6.976;2024-01-10T06:04:04;7.63;;;4.07;;
79668;SDS011;69136;52.614;6.976;2024-01-10T06:06:49;7.13;;;3.63;;
79668;SDS011;69136;52.614;6.976;2024-01-10T06:09:33;5.90;;;3.85;;
79668;SDS011;69136;52.614;6.976;2024-01-10T06:15:02;7.80;;;3.50;;
79668;SDS011;69136;52.614;6.976;2024-01-10T06:17:48;7.18;;;4.03;;
79668;SDS011;69136;52.614;6.976;2024-01-10T06:20:33;8.07;;;3.53;;
79668;SDS011;69136;52.614;6.976;2024-01-10T06:23:19;6.57;;;4.07;;
79668;SDS011;69136;52.614;6.976;2024-01-10T06:26:03;6.05;;;3.58;;
79668;SDS011;69136;52.614;6.976;2024-01-10T06:28:47;7.47;;;3.83;;
79668;SDS011;69136;52.614;6.976;2024-01-10T06:31:31;7.00;;;4.13;;
79668;SDS011;69136;52.614;6.976;2024-01-10T06:34:15;8.32;;;4.10;;
79668;SDS011;69136;52.614;6.976;2024-01-10T06:37:00;8.70;;;4.78;;
79668;SDS011;69136;52.614;6.976;2024-01-10T06:39:44;6.65;;;3.90;;
79668;SDS011;69136;52.614;6.976;2024-01-10T06:42:28;6.78;;;3.30;;
79668;SDS011;69136;52.614;6.976;2024-01-10T06:45:12;9.82;;;3.70;;
79668;SDS011;69136;52.614;6.976;2024-01-10T06:47:57;7.45;;;4.32;;
79668;SDS011;69136;52.614;6.976;2024-01-10T06:50:41;9.52;;;4.40;;
79668;SDS011;69136;52.614;6.976;2024-01-10T06:53:25;5.72;;;3.92;;
79668;SDS011;69136;52.614;6.976;2024-01-10T06:56:09;8.35;;;4.15;;
79668;SDS011;69136;52.614;6.976;2024-01-10T06:58:53;8.80;;;3.80;;
79668;SDS011;69136;52.614;6.976;2024-01-10T07:01:38;7.25;;;3.78;;
79668;SDS011;69136;52.614;6.976;2024-01-10T07:04:23;8.32;;;3.92;;
79668;SDS011;69136;52.614;6.976;2024-01-10T07:07:07;6.78;;;3.83;;
79668;SDS011;69136;52.614;6.976;2024-01-10T07:12:36;8.10;;;4.07;;
79668;SDS011;69136;52.614;6.976;2024-01-10T07:15:21;5.90;;;3.70;;
79668;SDS011;69136;52.614;6.976;2024-01-10T07:18:05;8.48;;;3.65;;
79668;SDS011;69136;52.614;6.976;2024-01-10T07:20:50;8.98;;;3.92;;
79668;SDS011;69136;52.614;6.976;2024-01-10T07:23:34;8.25;;;4.35;;
79668;SDS011;69136;52.614;6.976;2024-01-10T07:26:19;7.50;;;3.38;;
79668;SDS011;69136;52.614;6.976;2024-01-10T07:29:03;8.55;;;3.50;;
79668;SDS011;69136;52.614;6.976;2024-01-10T07:31:47;6.18;;;4.00;;
79668;SDS011;69136;52.614;6.976;2024-01-10T07:34:31;8.57;;;4.22;;
79668;SDS011;69136;52.614;6.976;2024-01-10T07:37:16;7.22;;;4.07;;
79668;SDS011;69136;52.614;6.976;2024-01-10T07:40:04;6.55;;;3.42;;
79668;SDS011;69136;52.614;6.976;2024-01-10T07:42:52;8.10;;;4.22;;
79668;SDS011;69136;52.614;6.976;2024-01-10T07:45:36;9.75;;;4.43;;
79668;SDS011;69136;52.614;6.976;2024-01-10T07:48:20;7.10;;;4.10;;
79668;SDS011;69136;52.614;6.976;2024-01-10T07:51:04;9.80;;;4.80;;
79668;SDS011;69136;52.614;6.976;2024-01-10T07:53:49;8.45;;;4.57;;
79668;SDS011;69136;52.614;6.976;2024-01-10T07:56:32;6.97;;;3.90;;
79668;SDS011;69136;52.614;6.976;2024-01-10T07:59:17;8.48;;;3.65;;
79668;SDS011;69136;52.614;6.976;2024-01-10T08:02:00;6.13;;;3.67;;
79668;SDS011;69136;52.614;6.976;2024-01-10T08:04:44;7.97;;;4.32;;
79668;SDS011;69136;52.614;6.976;2024-01-10T08:10:13;7.10;;;4.10;;
79668;SDS011;69136;52.614;6.976;2024-01-10T08:12:57;8.15;;;3.70;;
79668;SDS011;69136;52.614;6.976;2024-01-10T08:15:40;8.60;;;3.67;;
79668;SDS011;69136;52.614;6.976;2024-01-10T08:18:25;8.88;;;4.93;;
79668;SDS011;69136;52.614;6.976;2024-01-10T08:21:09;9.18;;;4.57;;
79668;SDS011;69136;52.614;6.976;2024-01-10T08:23:53;8.85;;;4.63;;
79668;SDS011;69136;52.614;6.976;2024-01-10T08:26:37;8.82;;;4.32;;
79668;SDS011;69136;52.614;6.976;2024-01-10T08:29:21;9.35;;;4.68;;
79668;SDS011;69136;52.614;6.976;2024-01-10T08:32:05;8.38;;;4.93;;
79668;SDS011;69136;52.614;6.976;2024-01-10T08:34:49;7.63;;;4.10;;
79668;SDS011;69136;52.614;6.976;2024-01-10T08:37:34;7.97;;;4.82;;
79668;SDS011;69136;52.614;6.976;2024-01-10T08:40:18;9.75;;;4.53;;
79668;SDS011;69136;52.614;6.976;2024-01-10T08:43:05;8.25;;;4.20;;
79668;SDS011;69136;52.614;6.976;2024-01-10T08:45:49;9.10;;;4.75;;
79668;SDS011;69136;52.614;6.976;2024-01-10T08:48:33;10.80;;;5.13;;
79668;SDS011;69136;52.614;6.976;2024-01-10T08:51:16;7.40;;;4.30;;
79668;SDS011;69136;52.614;6.976;2024-01-10T08:54:00;10.07;;;4.38;;
79668;SDS011;69136;52.614;6.976;2024-01-10T08:56:44;9.45;;;4.68;;
79668;SDS011;69136;52.614;6.976;2024-01-10T08:59:28;6.97;;;4.05;;
79668;SDS011;69136;52.614;6.976;2024-01-10T09:02:12;10.45;;;4.60;;
79668;SDS011;69136;52.614;6.976;2024-01-10T09:04:56;7.13;;;4.10;;
79668;SDS011;69136;52.614;6.976;2024-01-10T09:07:40;11.43;;;4.53;;
79668;SDS011;69136;52.614;6.976;2024-01-10T09:10:26;8.88;;;4.78;;
79668;SDS011;69136;52.614;6.976;2024-01-10T09:13:11;8.65;;;4.40;;
79668;SDS011;69136;52.614;6.976;2024-01-10T09:15:55;8.35;;;4.15;;
79668;SDS011;69136;52.614;6.976;2024-01-10T09:18:40;6.47;;;4.18;;
79668;SDS011;69136;52.614;6.976;2024-01-10T09:21:25;7.15;;;4.05;;
79668;SDS011;69136;52.614;6.976;2024-01-10T09:24:10;7.40;;;3.85;;
79668;SDS011;69136;52.614;6.976;2024-01-10T09:26:55;10.35;;;4.03;;
79668;SDS011;69136;52.614;6.976;2024-01-10T09:29:39;7.80;;;4.22;;
79668;SDS011;69136;52.614;6.976;2024-01-10T09:32:23;9.85;;;4.88;;
79668;SDS011;69136;52.614;6.976;2024-01-10T09:35:07;8.82;;;3.92;;
79668;SDS011;69136;52.614;6.976;2024-01-10T09:37:52;10.43;;;4.70;;
79668;SDS011;69136;52.614;6.976;2024-01-10T09:40:37;11.98;;;4.55;;
79668;SDS011;69136;52.614;6.976;2024-01-10T09:43:22;12.82;;;4.47;;
79668;SDS011;69136;52.614;6.976;2024-01-10T09:46:07;9.35;;;4.15;;
79668;SDS011;69136;52.614;6.976;2024-01-10T09:48:51;8.40;;;3.92;;
79668;SDS011;69136;52.614;6.976;2024-01-10T09:51:35;9.15;;;4.78;;
79668;SDS011;69136;52.614;6.976;2024-01-10T09:54:20;9.80;;;4.63;;
79668;SDS011;69136;52.614;6.976;2024-01-10T09:57:05;10.80;;;4.45;;
79668;SDS011;69136;52.614;6.976;2024-01-10T09:59:50;9.95;;;4.70;;
79668;SDS011;69136;52.614;6.976;2024-01-10T10:02:40;8.55;;;4.25;;
79668;SDS011;69136;52.614;6.976;2024-01-10T10:05:25;6.72;;;3.83;;
79668;SDS011;69136;52.614;6.976;2024-01-10T10:08:13;9.13;;;4.05;;
79668;SDS011;69136;52.614;6.976;2024-01-10T10:11:06;7.00;;;3.97;;
79668;SDS011;69136;52.614;6.976;2024-01-10T10:13:50;8.35;;;4.10;;
79668;SDS011;69136;52.614;6.976;2024-01-10T10:19:24;9.30;;;4.40;;
79668;SDS011;69136;52.614;6.976;2024-01-10T10:22:09;9.75;;;4.72;;
79668;SDS011;69136;52.614;6.976;2024-01-10T10:24:54;6.35;;;3.63;;
79668;SDS011;69136;52.614;6.976;2024-01-10T10:27:38;8.13;;;4.38;;
79668;SDS011;69136;52.614;6.976;2024-01-10T10:33:07;9.77;;;3.97;;
79668;SDS011;69136;52.614;6.976;2024-01-10T10:35:52;8.02;;;3.60;;
79668;SDS011;69136;52.614;6.976;2024-01-10T10:38:36;8.50;;;4.22;;
79668;SDS011;69136;52.614;6.976;2024-01-10T10:41:21;6.10;;;3.97;;
79668;SDS011;69136;52.614;6.976;2024-01-10T10:44:05;7.28;;;4.00;;
79668;SDS011;69136;52.614;6.976;2024-01-10T10:46:53;6.90;;;4.15;;
79668;SDS011;69136;52.614;6.976;2024-01-10T10:49:42;7.38;;;3.85;;
79668;SDS011;69136;52.614;6.976;2024-01-10T10:52:34;8.73;;;4.30;;
79668;SDS011;69136;52.614;6.976;2024-01-10T10:55:19;9.55;;;5.10;;
79668;SDS011;69136;52.614;6.976;2024-01-10T10:58:03;8.73;;;3.97;;
79668;SDS011;69136;52.614;6.976;2024-01-10T11:00:51;7.28;;;3.83;;
79668;SDS011;69136;52.614;6.976;2024-01-10T11:03:37;8.48;;;4.32;;
79668;SDS011;69136;52.614;6.976;2024-01-10T11:06:22;7.28;;;3.90;;
79668;SDS011;69136;52.614;6.976;2024-01-10T11:09:06;7.57;;;4.20;;
79668;SDS011;69136;52.614;6.976;2024-01-10T11:12:03;7.80;;;4.00;;
79668;SDS011;69136;52.614;6.976;2024-01-10T11:18:26;7.00;;;3.92;;
79668;SDS011;69136;52.614;6.976;2024-01-10T11:24:12;10.00;;;3.78;;
79668;SDS011;69136;52.614;6.976;2024-01-10T11:27:06;8.95;;;4.22;;
79668;SDS011;69136;52.614;6.976;2024-01-10T11:29:58;8.65;;;4.03;;
79668;SDS011;69136;52.614;6.976;2024-01-10T11:32:44;6.00;;;3.40;;
79668;SDS011;69136;52.614;6.976;2024-01-10T11:38:16;7.43;;;3.20;;
79668;SDS011;69136;52.614;6.976;2024-01-10T11:41:00;6.53;;;3.70;;
79668;SDS011;69136;52.614;6.976;2024-01-10T11:43:45;7.47;;;3.80;;
79668;SDS011;69136;52.614;6.976;2024-01-10T11:46:28;7.60;;;3.50;;
79668;SDS011;69136;52.614;6.976;2024-01-10T11:49:14;6.63;;;3.15;;
79668;SDS011;69136;52.614;6.976;2024-01-10T11:51:59;10.35;;;3.95;;
79668;SDS011;69136;52.614;6.976;2024-01-10T11:54:45;10.90;;;3.78;;
79668;SDS011;69136;52.614;6.976;2024-01-10T11:57:29;8.38;;;4.03;;
79668;SDS011;69136;52.614;6.976;2024-01-10T12:00:15;7.38;;;4.00;;
79668;SDS011;69136;52.614;6.976;2024-01-10T12:05:44;6.38;;;3.13;;
79668;SDS011;69136;52.614;6.976;2024-01-10T12:11:12;5.90;;;3.00;;
79668;SDS011;69136;52.614;6.976;2024-01-10T12:13:57;9.95;;;3.28;;
79668;SDS011;69136;52.614;6.976;2024-01-10T12:16:41;5.55;;;2.92;;
79668;SDS011;69136;52.614;6.976;2024-01-10T12:19:26;6.07;;;3.05;;
79668;SDS011;69136;52.614;6.976;2024-01-10T12:22:11;9.32;;;3.55;;
79668;SDS011;69136;52.614;6.976;2024-01-10T12:27:40;6.57;;;3.00;;
79668;SDS011;69136;52.614;6.976;2024-01-10T12:33:09;6.50;;;2.88;;
79668;SDS011;69136;52.614;6.976;2024-01-10T12:38:51;6.63;;;2.15;;
79668;SDS011;69136;52.614;6.976;2024-01-10T12:44:20;6.55;;;2.40;;
79668;SDS011;69136;52.614;6.976;2024-01-10T12:49:48;5.63;;;2.92;;
79668;SDS011;69136;52.614;6.976;2024-01-10T12:52:33;4.50;;;2.50;;
79668;SDS011;69136;52.614;6.976;2024-01-10T12:55:25;4.72;;;2.55;;
79668;SDS011;69136;52.614;6.976;2024-01-10T12:58:11;3.20;;;2.17;;
79668;SDS011;69136;52.614;6.976;2024-01-10T13:00:55;5.78;;;2.40;;
79668;SDS011;69136;52.614;6.976;2024-01-10T13:03:39;5.35;;;2.50;;
79668;SDS011;69136;52.614;6.976;2024-01-10T13:06:23;4.35;;;2.20;;
79668;SDS011;69136;52.614;6.976;2024-01-10T13:09:08;3.47;;;2.22;;
79668;SDS011;69136;52.614;6.976;2024-01-10T13:11:53;4.28;;;2.45;;
79668;SDS011;69136;52.614;6.976;2024-01-10T13:14:37;5.57;;;2.25;;
79668;SDS011;69136;52.614;6.976;2024-01-10T13:20:05;4.78;;;2.30;;
79668;SDS011;69136;52.614;6.976;2024-01-10T13:22:51;8.18;;;2.72;;
79668;SDS011;69136;52.614;6.976;2024-01-10T13:28:20;4.75;;;2.65;;
79668;SDS011;69136;52.614;6.976;2024-01-10T13:33:49;4.65;;;1.85;;
79668;SDS011;69136;52.614;6.976;2024-01-10T13:36:34;3.92;;;2.13;;
79668;SDS011;69136;52.614;6.976;2024-01-10T13:42:02;4.47;;;2.33;;
79668;SDS011;69136;52.614;6.976;2024-01-10T13:47:31;5.25;;;2.60;;
79668;SDS011;69136;52.614;6.976;2024-01-10T13:50:17;6.40;;;2.35;;
79668;SDS011;69136;52.614;6.976;2024-01-10T13:53:02;4.65;;;2.40;;
79668;SDS011;69136;52.614;6.976;2024-01-10T13:55:48;5.55;;;2.50;;
79668;SDS011;69136;52.614;6.976;2024-01-10T14:01:17;4.18;;;2.08;;
79668;SDS011;69136;52.614;6.976;2024-01-10T14:04:01;8.38;;;2.22;;
79668;SDS011;69136;52.614;6.976;2024-01-10T14:09:30;4.13;;;1.85;;
79668;SDS011;69136;52.614;6.976;2024-01-10T14:12:14;4.43;;;2.60;;
79668;SDS011;69136;52.614;6.976;2024-01-10T14:14:59;6.63;;;2.70;;
79668;SDS011;69136;52.614;6.976;2024-01-10T14:20:27;5.47;;;2.42;;
79668;SDS011;69136;52.614;6.976;2024-01-10T14:23:11;4.15;;;2.22;;
79668;SDS011;69136;52.614;6.976;2024-01-10T14:28:39;7.22;;;2.83;;
79668;SDS011;69136;52.614;6.976;2024-01-10T14:34:35;6.03;;;2.30;;
79668;SDS011;69136;52.614;6.976;2024-01-10T14:37:19;4.20;;;2.13;;
79668;SDS011;69136;52.614;6.976;2024-01-10T14:40:04;3.88;;;2.40;;
79668;SDS011;69136;52.614;6.976;2024-01-10T14:42:50;6.07;;;1.98;;
79668;SDS011;69136;52.614;6.976;2024-01-10T14:45:34;6.78;;;2.78;;
79668;SDS011;69136;52.614;6.976;2024-01-10T14:48:18;3.20;;;2.22;;
79668;SDS011;69136;52.614;6.976;2024-01-10T14:51:03;5.30;;;2.10;;
79668;SDS011;69136;52.614;6.976;2024-01-10T14:56:32;3.13;;;2.25;;
79668;SDS011;69136;52.614;6.976;2024-01-10T14:59:16;5.28;;;2.35;;
79668;SDS011;69136;52.614;6.976;2024-01-10T15:04:44;8.68;;;2.53;;
79668;SDS011;69136;52.614;6.976;2024-01-10T15:07:29;4.68;;;2.20;;
79668;SDS011;69136;52.614;6.976;2024-01-10T15:10:13;3.88;;;1.88;;
79668;SDS011;69136;52.614;6.976;2024-01-10T15:12:57;5.63;;;2.55;;
79668;SDS011;69136;52.614;6.976;2024-01-10T15:15:41;6.90;;;2.78;;
79668;SDS011;69136;52.614;6.976;2024-01-10T15:18:26;5.00;;;2.92;;
79668;SDS011;69136;52.614;6.976;2024-01-10T15:21:11;4.70;;;2.20;;
79668;SDS011;69136;52.614;6.976;2024-01-10T15:23:55;5.40;;;2.38;;
79668;SDS011;69136;52.614;6.976;2024-01-10T15:26:39;5.35;;;2.30;;
79668;SDS011;69136;52.614;6.976;2024-01-10T15:29:23;6.32;;;3.22;;
79668;SDS011;69136;52.614;6.976;2024-01-10T15:32:07;6.10;;;2.58;;
79668;SDS011;69136;52.614;6.976;2024-01-10T15:34:51;6.78;;;2.78;;
79668;SDS011;69136;52.614;6.976;2024-01-10T15:37:35;6.13;;;2.30;;
79668;SDS011;69136;52.614;6.976;2024-01-10T15:40:19;4.20;;;2.65;;
79668;SDS011;69136;52.614;6.976;2024-01-10T15:43:04;5.03;;;2.30;;
79668;SDS011;69136;52.614;6.976;2024-01-10T15:45:48;4.72;;;2.47;;
79668;SDS011;69136;52.614;6.976;2024-01-10T15:48:32;4.53;;;2.33;;
79668;SDS011;69136;52.614;6.976;2024-01-10T15:51:17;7.88;;;2.60;;
79668;SDS011;69136;52.614;6.976;2024-01-10T15:54:01;5.70;;;2.63;;
79668;SDS011;69136;52.614;6.976;2024-01-10T15:56:45;4.45;;;2.13;;
79668;SDS011;69136;52.614;6.976;2024-01-10T15:59:29;5.45;;;2.85;;
79668;SDS011;69136;52.614;6.976;2024-01-10T16:02:13;6.60;;;2.75;;
79668;SDS011;69136;52.614;6.976;2024-01-10T16:04:57;15.45;;;3.15;;
79668;SDS011;69136;52.614;6.976;2024-01-10T16:10:25;5.25;;;3.03;;
79668;SDS011;69136;52.614;6.976;2024-01-10T16:13:09;5.45;;;2.65;;
79668;SDS011;69136;52.614;6.976;2024-01-10T16:15:54;6.47;;;2.75;;
79668;SDS011;69136;52.614;6.976;2024-01-10T16:18:41;5.68;;;2.67;;
79668;SDS011;69136;52.614;6.976;2024-01-10T16:21:25;7.25;;;3.15;;
79668;SDS011;69136;52.614;6.976;2024-01-10T16:24:09;5.65;;;2.72;;
79668;SDS011;69136;52.614;6.976;2024-01-10T16:26:53;6.40;;;3.17;;
79668;SDS011;69136;52.614;6.976;2024-01-10T16:29:37;6.07;;;3.45;;
79668;SDS011;69136;52.614;6.976;2024-01-10T16:32:21;6.22;;;3.30;;
79668;SDS011;69136;52.614;6.976;2024-01-10T16:35:05;6.60;;;2.88;;
79668;SDS011;69136;52.614;6.976;2024-01-10T16:37:50;6.95;;;3.40;;
79668;SDS011;69136;52.614;6.976;2024-01-10T16:40:34;4.97;;;2.97;;
79668;SDS011;69136;52.614;6.976;2024-01-10T16:43:18;6.43;;;3.42;;
79668;SDS011;69136;52.614;6.976;2024-01-10T16:46:02;5.65;;;2.97;;
79668;SDS011;69136;52.614;6.976;2024-01-10T16:51:31;9.15;;;3.05;;
79668;SDS011;69136;52.614;6.976;2024-01-10T16:54:15;7.40;;;3.50;;
79668;SDS011;69136;52.614;6.976;2024-01-10T16:59:43;7.05;;;3.17;;
79668;SDS011;69136;52.614;6.976;2024-01-10T17:05:12;6.43;;;3.58;;
79668;SDS011;69136;52.614;6.976;2024-01-10T17:10:40;9.60;;;4.10;;
79668;SDS011;69136;52.614;6.976;2024-01-10T17:13:24;7.45;;;3.95;;
79668;SDS011;69136;52.614;6.976;2024-01-10T17:16:07;8.50;;;4.60;;
79668;SDS011;69136;52.614;6.976;2024-01-10T17:18:51;9.38;;;4.55;;
79668;SDS011;69136;52.614;6.976;2024-01-10T17:21:35;10.75;;;4.68;;
79668;SDS011;69136;52.614;6.976;2024-01-10T17:24:20;9.00;;;3.95;;
79668;SDS011;69136;52.614;6.976;2024-01-10T17:29:48;11.13;;;4.47;;
79668;SDS011;69136;52.614;6.976;2024-01-10T17:32:32;11.40;;;4.50;;
79668;SDS011;69136;52.614;6.976;2024-01-10T17:38:01;7.35;;;4.32;;
79668;SDS011;69136;52.614;6.976;2024-01-10T17:40:45;8.32;;;4.25;;
79668;SDS011;69136;52.614;6.976;2024-01-10T17:43:31;8.95;;;3.95;;
79668;SDS011;69136;52.614;6.976;2024-01-10T17:46:15;9.60;;;4.55;;
79668;SDS011;69136;52.614;6.976;2024-01-10T17:48:59;9.57;;;4.90;;
79668;SDS011;69136;52.614;6.976;2024-01-10T17:51:43;7.93;;;4.10;;
79668;SDS011;69136;52.614;6.976;2024-01-10T17:54:27;9.65;;;4.32;;
79668;SDS011;69136;52.614;6.976;2024-01-10T17:57:12;10.52;;;4.95;;
79668;SDS011;69136;52.614;6.976;2024-01-10T17:59:55;11.30;;;4.60;;
79668;SDS011;69136;52.614;6.976;2024-01-10T18:05:24;10.52;;;4.60;;
79668;SDS011;69136;52.614;6.976;2024-01-10T18:08:08;11.52;;;4.93;;
79668;SDS011;69136;52.614;6.976;2024-01-10T18:10:52;6.65;;;4.45;;
79668;SDS011;69136;52.614;6.976;2024-01-10T18:13:37;8.80;;;4.93;;
79668;SDS011;69136;52.614;6.976;2024-01-10T18:16:21;9.10;;;4.78;;
79668;SDS011;69136;52.614;6.976;2024-01-10T18:21:49;9.68;;;4.20;;
79668;SDS011;69136;52.614;6.976;2024-01-10T18:24:35;12.73;;;5.63;;
79668;SDS011;69136;52.614;6.976;2024-01-10T18:27:19;8.95;;;4.43;;
79668;SDS011;69136;52.614;6.976;2024-01-10T18:30:03;9.13;;;4.95;;
79668;SDS011;69136;52.614;6.976;2024-01-10T18:32:50;11.25;;;5.45;;
79668;SDS011;69136;52.614;6.976;2024-01-10T18:35:34;12.77;;;5.53;;
79668;SDS011;69136;52.614;6.976;2024-01-10T18:38:19;12.55;;;5.53;;
79668;SDS011;69136;52.614;6.976;2024-01-10T18:41:03;11.23;;;5.13;;